createdAt,value
2022-11-19T13:16:12.606Z,99756.46
2022-11-19T13:24:54.094Z,99766.33
2022-11-19T13:33:22.374Z,99772.02
2022-11-19T13:42:13.744Z,99774.15
2022-11-19T13:50:43.057Z,99784.56
2022-11-19T13:59:08.516Z,99787.80
2022-11-19T14:07:45.074Z,99792.58
2022-11-19T14:16:48.690Z,99799.77
2022-11-19T14:25:29.193Z,99805.80
2022-11-19T14:33:58.164Z,99815.06
2022-11-19T14:42:22.200Z,99820.09
2022-11-19T14:51:10.108Z,99816.02
2022-11-19T14:59:37.637Z,99814.25
2022-11-19T15:08:21.075Z,99815.45
2022-11-19T15:16:47.490Z,99818.55
2022-11-19T15:25:20.571Z,99836.98
2022-11-19T15:34:01.400Z,99842.94
2022-11-19T15:42:44.115Z,99853.61
2022-11-19T15:51:11.929Z,99846.18
2022-11-19T15:59:42.000Z,99850.42
2022-11-19T16:08:07.012Z,99853.95
2022-11-19T16:16:48.228Z,99862.05
2022-11-19T16:25:41.558Z,99869.85
2022-11-19T16:34:03.473Z,99892.61
2022-11-19T16:42:27.677Z,99894.81
2022-11-19T16:50:55.257Z,99890.31
2022-11-19T16:59:25.865Z,99891.45
2022-11-19T17:07:58.228Z,99878.86
2022-11-19T17:16:27.052Z,99886.78
2022-11-19T17:24:50.003Z,99894.30
2022-11-19T17:33:15.845Z,99897.05
2022-11-19T17:41:57.330Z,99899.46
2022-11-19T17:50:22.401Z,99899.61
2022-11-19T17:58:44.176Z,99907.64
2022-11-19T18:07:07.501Z,99908.35
2022-11-19T18:15:30.493Z,99910.35
2022-11-19T18:23:53.738Z,99903.04
2022-11-19T18:32:16.350Z,99894.77
2022-11-19T18:40:41.908Z,99887.19
2022-11-19T18:49:04.503Z,99879.08
2022-11-19T18:57:26.478Z,99887.98
2022-11-19T19:05:48.207Z,99904.02
2022-11-19T19:14:10.594Z,99921.19
2022-11-19T19:22:32.451Z,99927.14
2022-11-19T19:31:01.283Z,99926.73
2022-11-19T19:39:26.981Z,99928.15
2022-11-19T19:47:49.151Z,99929.32
2022-11-19T19:56:13.747Z,99931.62
2022-11-19T20:04:35.411Z,99930.71
2022-11-19T20:13:16.554Z,99932.41
2022-11-19T20:21:38.432Z,99929.27
2022-11-19T20:30:00.550Z,99935.12
2022-11-19T20:38:22.577Z,99929.80
2022-11-19T20:47:05.495Z,99925.89
2022-11-19T20:55:27.997Z,99929.70
2022-11-19T21:03:49.713Z,99923.23
2022-11-19T21:12:11.530Z,99933.68
2022-11-19T21:20:34.296Z,99936.88
2022-11-19T21:28:57.688Z,99932.86
2022-11-19T21:37:19.298Z,99943.65
2022-11-19T21:45:41.335Z,99937.27
2022-11-19T21:54:03.245Z,99933.17
2022-11-19T22:02:26.127Z,99946.48
2022-11-19T22:10:48.454Z,99945.20
2022-11-19T22:19:11.527Z,99945.00
2022-11-19T22:27:33.074Z,99941.33
2022-11-19T22:35:58.706Z,99937.04
2022-11-19T22:44:20.526Z,99944.53
2022-11-19T22:52:42.655Z,99943.02
2022-11-19T23:01:05.562Z,99940.52
2022-11-19T23:09:27.199Z,99940.23
2022-11-19T23:17:48.927Z,99941.75
2022-11-19T23:26:13.400Z,99944.93
2022-11-19T23:34:35.044Z,99933.98
2022-11-19T23:42:56.818Z,99938.31
2022-11-19T23:51:24.325Z,99932.34
2022-11-19T23:59:46.309Z,99917.61
